Map

Track Data

SID SEASON NUMBER BASIN SUBBASIN NAME ISO_TIME NATURE LAT LON WMO_WIND WMO_PRES WMO_AGENCY TRACK_TYPE DIST2LAND LANDFALL IFLAG USA_AGENCY USA_ATCF_ID USA_LAT USA_LON USA_RECORD USA_STATUS USA_WIND USA_PRES USA_SSHS USA_R34_NE USA_R34_SE USA_R34_SW USA_R34_NW USA_R50_NE USA_R50_SE USA_R50_SW USA_R50_NW USA_R64_NE USA_R64_SE USA_R64_SW USA_R64_NW USA_POCI USA_ROCI USA_RMW USA_EYE TOKYO_LAT TOKYO_LON TOKYO_GRADE TOKYO_WIND TOKYO_PRES TOKYO_R50_DIR TOKYO_R50_LONG TOKYO_R50_SHORT TOKYO_R30_DIR TOKYO_R30_LONG TOKYO_R30_SHORT TOKYO_LAND CMA_LAT CMA_LON CMA_CAT CMA_WIND CMA_PRES HKO_LAT HKO_LON HKO_CAT HKO_WIND HKO_PRES NEWDELHI_LAT NEWDELHI_LON NEWDELHI_GRADE NEWDELHI_WIND NEWDELHI_PRES NEWDELHI_CI NEWDELHI_DP NEWDELHI_POCI REUNION_LAT REUNION_LON REUNION_TYPE REUNION_WIND REUNION_PRES REUNION_TNUM REUNION_CI REUNION_RMW REUNION_R34_NE REUNION_R34_SE REUNION_R34_SW REUNION_R34_NW REUNION_R50_NE REUNION_R50_SE REUNION_R50_SW REUNION_R50_NW REUNION_R64_NE REUNION_R64_SE REUNION_R64_SW REUNION_R64_NW BOM_LAT BOM_LON BOM_TYPE BOM_WIND BOM_PRES BOM_TNUM BOM_CI BOM_RMW BOM_R34_NE BOM_R34_SE BOM_R34_SW BOM_R34_NW BOM_R50_NE BOM_R50_SE BOM_R50_SW BOM_R50_NW BOM_R64_NE BOM_R64_SE BOM_R64_SW BOM_R64_NW BOM_ROCI BOM_POCI BOM_EYE BOM_POS_METHOD BOM_PRES_METHOD NADI_LAT NADI_LON NADI_CAT NADI_WIND NADI_PRES WELLINGTON_LAT WELLINGTON_LON WELLINGTON_WIND WELLINGTON_PRES DS824_LAT DS824_LON DS824_STAGE DS824_WIND DS824_PRES TD9636_LAT TD9636_LON TD9636_STAGE TD9636_WIND TD9636_PRES TD9635_LAT TD9635_LON TD9635_WIND TD9635_PRES TD9635_ROCI NEUMANN_LAT NEUMANN_LON NEUMANN_CLASS NEUMANN_WIND NEUMANN_PRES MLC_LAT MLC_LON MLC_CLASS MLC_WIND MLC_PRES USA_GUST BOM_GUST BOM_GUST_PER REUNION_GUST REUNION_GUST_PER USA_SEAHGT USA_SEARAD_NE USA_SEARAD_SE USA_SEARAD_SW USA_SEARAD_NW STORM_SPEED STORM_DIR
1872241N36296 1872 18 NA NA NOT_NAMED 1872-08-27 12:00:00 TS 36.0000 -64.0000 main 818 818 _____________O -1 36.0000 -64.0000 TS 40 7 71
1872241N36296 1872 18 NA NA NOT_NAMED 1872-08-27 15:00:00 TS 36.1128 -63.5904 main 832 828 _____________P -1 36.1128 -63.5904 TS 45 7 73
1872241N36296 1872 18 NA NA NOT_NAMED 1872-08-27 18:00:00 TS 36.2000 -63.2000 main 831 831 _____________O -1 36.2000 -63.2000 TS 50 6 77
1872241N36296 1872 18 NA NA NOT_NAMED 1872-08-27 21:00:00 TS 36.2498 -62.8422 main 839 828 _____________P -1 36.2498 -62.8422 TS 55 6 80
1872241N36296 1872 18 NA NA NOT_NAMED 1872-08-28 00:00:00 TS 36.3000 -62.5000 main 835 830 _____________O -1 36.3000 -62.5000 TS 60 6 75
1872241N36296 1872 18 NA NA NOT_NAMED 1872-08-28 03:00:00 TS 36.3998 -62.1576 main 832 827 _____________P -1 36.3998 -62.1576 TS 60 6 70
1872241N36296 1872 18 NA NA NOT_NAMED 1872-08-28 06:00:00 TS 36.5000 -61.8000 main 833 833 _____________O -1 36.5000 -61.8000 TS 60 6 82
1872241N36296 1872 18 NA NA NOT_NAMED 1872-08-28 09:00:00 TS 36.4816 -61.4652 main 842 842 _____________P -1 36.4816 -61.4652 TS 67 6 81
1872241N36296 1872 18 NA NA NOT_NAMED 1872-08-28 12:00:00 TS 36.6000 -61.0000 main 849 833 _____________O -1 36.6000 -61.0000 HU 75 11 58
1872241N36296 1872 18 NA NA NOT_NAMED 1872-08-28 15:00:00 TS 37.0754 -60.2689 main 827 812 _____________P -1 37.0754 -60.2689 HU 80 17 49
1872241N36296 1872 18 NA NA NOT_NAMED 1872-08-28 18:00:00 TS 37.7000 -59.4000 main 813 798 _____________O -1 37.7000 -59.4000 HU 85 18 49
1872241N36296 1872 18 NA NA NOT_NAMED 1872-08-28 21:00:00 TS 38.2497 -58.5491 main 805 764 _____________P -1 38.2497 -58.5491 HU 85 17 51
1872241N36296 1872 18 NA NA NOT_NAMED 1872-08-29 00:00:00 TS 38.8000 -57.7000 main 764 737 _____________O -1 38.8000 -57.7000 HU 85 17 50
1872241N36296 1872 18 NA NA NOT_NAMED 1872-08-29 03:00:00 TS 39.3493 -56.8911 main 740 716 _____________P -1 39.3493 -56.8911 HU 85 17 48
1872241N36296 1872 18 NA NA NOT_NAMED 1872-08-29 06:00:00 TS 39.9000 -56.1000 main 716 701 _____________O -1 39.9000 -56.1000 HU 85 16 47
1872241N36296 1872 18 NA NA NOT_NAMED 1872-08-29 09:00:00 TS 40.4711 -55.3362 main 691 627 _____________P -1 40.4711 -55.3362 HU 85 16 48
1872241N36296 1872 18 NA NA NOT_NAMED 1872-08-29 12:00:00 TS 41.0000 -54.5000 main 626 578 _____________O -1 41.0000 -54.5000 HU 85 17 56
1872241N36296 1872 18 NA NA NOT_NAMED 1872-08-29 15:00:00 TS 41.4300 -53.4863 main 578 536 _____________P -1 41.4300 -53.4863 HU 80 18 63
1872241N36296 1872 18 NA NA NOT_NAMED 1872-08-29 18:00:00 TS 41.8000 -52.4000 main 537 515 _____________O -1 41.8000 -52.4000 HU 75 17 66
1872241N36296 1872 18 NA NA NOT_NAMED 1872-08-29 21:00:00 TS 42.1490 -51.3481 main 522 506 _____________P -1 42.1490 -51.3481 HU 75 17 66
1872241N36296 1872 18 NA NA NOT_NAMED 1872-08-30 00:00:00 TS 42.5000 -50.3000 main 509 505 _____________O -1 42.5000 -50.3000 HU 75 17 64
1872241N36296 1872 18 NA NA NOT_NAMED 1872-08-30 03:00:00 TS 42.8992 -49.2421 main 517 513 _____________P -1 42.8992 -49.2421 HU 72 17 63
1872241N36296 1872 18 NA NA NOT_NAMED 1872-08-30 06:00:00 TS 43.3000 -48.2000 main 536 536 _____________O -1 43.3000 -48.2000 HU 70 16 64
1872241N36296 1872 18 NA NA NOT_NAMED 1872-08-30 09:00:00 TS 43.6025 -47.2390 main 575 574 _____________P -1 43.6025 -47.2390 HU 70 16 64
1872241N36296 1872 18 NA NA NOT_NAMED 1872-08-30 12:00:00 TS 44.0000 -46.2000 main 613 613 _____________O -1 44.0000 -46.2000 HU 70 20 58
1872241N36296 1872 18 NA NA NOT_NAMED 1872-08-30 15:00:00 TS 44.6480 -44.8967 main 672 672 _____________P -1 44.6480 -44.8967 HU 67 24 54
1872241N36296 1872 18 NA NA NOT_NAMED 1872-08-30 18:00:00 TS 45.4000 -43.5000 main 731 731 _____________O -1 45.4000 -43.5000 HU 65 24 53
1872241N36296 1872 18 NA NA NOT_NAMED 1872-08-30 21:00:00 TS 46.0983 -42.1890 main 802 802 _____________P -1 46.0983 -42.1890 HU 62 23 52
1872241N36296 1872 18 NA NA NOT_NAMED 1872-08-31 00:00:00 ET 46.8000 -40.9000 main 883 883 _____________O -1 46.8000 -40.9000 EX 60 23 52
1872241N36296 1872 18 NA NA NOT_NAMED 1872-08-31 03:00:00 ET 47.5060 -39.5971 main 971 971 _____________P -1 47.5060 -39.5971 EX 60 22 51
1872241N36296 1872 18 NA NA NOT_NAMED 1872-08-31 06:00:00 ET 48.2000 -38.3000 main 1063 1063 _____________O -1 48.2000 -38.3000 EX 60 22 52
1872241N36296 1872 18 NA NA NOT_NAMED 1872-08-31 09:00:00 ET 48.8629 -37.0063 main 1159 1159 _____________P -1 48.8629 -37.0063 EX 60 21 53
1872241N36296 1872 18 NA NA NOT_NAMED 1872-08-31 12:00:00 ET 49.5000 -35.7000 main 1253 _____________O -1 49.5000 -35.7000 EX 60 21 53

About IBTrACS Database

This database is a web-friendly format of International Best Track Archive for Climate Stewardship (IBTrACS), a global best track data archive curated by NOAA dating back to 1842.

Updated: 2021-10-21